Time;durP1;ratioP1;P1;durP2;ratioP2;P2;SDS_P1;SDS_P2;PMS_P1;PMS_P2;Temp;Humidity;BMP_temperature;BMP_pressure;BME280_temperature;BME280_humidity;BME280_pressure;Samples;Min_cycle;Max_cycle;Signal;HPM_P1;HPM_P2
2021/10/18 00:00:57;;;;;;;5.07;1.60;;;20.70;46.00;;;;;;5016603;28;20038;-67
2021/10/18 00:03:23;;;;;;;4.20;1.50;;;20.70;45.80;;;;;;5017429;28;20048;-67
2021/10/18 00:05:48;;;;;;;5.90;1.90;;;20.70;45.90;;;;;;5016909;28;20111;-66
2021/10/18 00:08:14;;;;;;;4.25;1.63;;;20.70;45.90;;;;;;5015526;28;20069;-66
2021/10/18 00:10:40;;;;;;;6.97;2.10;;;20.70;45.90;;;;;;5016918;28;20551;-66
2021/10/18 00:13:06;;;;;;;9.00;1.70;;;20.70;45.90;;;;;;5019002;28;20045;-67
2021/10/18 00:15:32;;;;;;;3.97;1.50;;;20.70;45.90;;;;;;5016396;28;20034;-66
2021/10/18 00:17:59;;;;;;;4.40;1.55;;;20.70;45.90;;;;;;5016371;28;20442;-67
2021/10/18 00:20:26;;;;;;;4.18;1.50;;;20.70;45.80;;;;;;5023458;28;20045;-65
2021/10/18 00:22:52;;;;;;;5.18;1.50;;;20.70;45.80;;;;;;5016043;28;20100;-67
2021/10/18 00:25:19;;;;;;;5.13;1.77;;;20.70;45.80;;;;;;5013332;28;20038;-66
2021/10/18 00:27:45;;;;;;;4.00;1.52;;;20.70;45.80;;;;;;5012563;28;20149;-66
2021/10/18 00:30:11;;;;;;;4.80;1.70;;;20.70;45.90;;;;;;5016237;28;20033;-66
2021/10/18 00:32:37;;;;;;;4.63;1.70;;;20.70;45.90;;;;;;5014755;28;20034;-66
2021/10/18 00:35:04;;;;;;;4.63;1.60;;;20.70;45.80;;;;;;5016738;28;20073;-66
2021/10/18 00:37:30;;;;;;;5.07;1.55;;;20.70;45.80;;;;;;5015088;28;20045;-66
2021/10/18 00:39:55;;;;;;;4.45;1.65;;;20.70;45.70;;;;;;5017659;28;20042;-67
2021/10/18 00:42:21;;;;;;;4.45;1.50;;;20.70;45.70;;;;;;5015449;28;20041;-66
2021/10/18 00:44:49;;;;;;;4.25;1.55;;;20.70;45.80;;;;;;5014470;28;20037;-67
2021/10/18 00:47:17;;;;;;;5.68;1.52;;;20.70;45.80;;;;;;5019206;28;20049;-65
2021/10/18 00:49:42;;;;;;;4.95;1.77;;;20.70;45.70;;;;;;5013810;28;20046;-67
2021/10/18 00:52:09;;;;;;;5.93;1.58;;;20.70;45.70;;;;;;5014047;28;20458;-66
2021/10/18 00:54:35;;;;;;;5.32;1.50;;;20.70;45.60;;;;;;5015045;28;20017;-66
2021/10/18 00:57:00;;;;;;;4.75;1.58;;;20.70;45.70;;;;;;5012640;28;20038;-67
2021/10/18 00:59:26;;;;;;;4.25;1.45;;;20.70;45.70;;;;;;5017963;28;20033;-66
2021/10/18 01:01:54;;;;;;;3.92;1.40;;;20.70;45.70;;;;;;5015410;28;20125;-66
2021/10/18 01:04:19;;;;;;;4.70;1.63;;;20.70;45.60;;;;;;5014260;28;20144;-67
2021/10/18 01:06:45;;;;;;;3.70;1.42;;;20.70;45.40;;;;;;5013736;28;21945;-68
2021/10/18 01:09:11;;;;;;;4.40;1.50;;;20.70;45.50;;;;;;5014731;28;20030;-68
2021/10/18 01:11:37;;;;;;;5.57;1.60;;;20.60;45.30;;;;;;5014815;28;20569;-68
2021/10/18 01:14:02;;;;;;;5.57;1.55;;;20.70;45.50;;;;;;5011602;28;20569;-68
2021/10/18 01:16:28;;;;;;;5.35;1.52;;;20.70;45.50;;;;;;5012683;28;20025;-68
2021/10/18 01:18:54;;;;;;;4.15;1.30;;;20.70;45.70;;;;;;5013199;28;20049;-67
2021/10/18 01:21:19;;;;;;;5.05;1.45;;;20.70;45.40;;;;;;5015339;28;20037;-66
2021/10/18 01:23:45;;;;;;;5.80;1.33;;;20.70;45.50;;;;;;5013747;28;20135;-66
2021/10/18 01:26:11;;;;;;;4.32;1.40;;;20.70;45.50;;;;;;5016827;28;20037;-66
2021/10/18 01:28:37;;;;;;;4.15;1.40;;;20.70;45.40;;;;;;5012589;28;20465;-65
2021/10/18 01:31:02;;;;;;;5.43;1.30;;;20.70;45.40;;;;;;5014383;28;20057;-67
2021/10/18 01:33:28;;;;;;;4.65;1.70;;;20.60;45.20;;;;;;5014541;28;20033;-68
2021/10/18 01:35:53;;;;;;;4.78;1.58;;;20.70;45.40;;;;;;5014517;28;20495;-68
2021/10/18 01:38:19;;;;;;;5.28;1.75;;;20.60;45.00;;;;;;5011892;28;20045;-67
2021/10/18 01:40:45;;;;;;;5.32;1.48;;;20.70;45.50;;;;;;5013993;28;20034;-67
2021/10/18 01:43:11;;;;;;;4.32;1.38;;;20.60;45.00;;;;;;5014310;28;20041;-68
2021/10/18 01:45:36;;;;;;;4.28;1.35;;;20.60;45.10;;;;;;5014927;28;20809;-68
2021/10/18 01:48:02;;;;;;;4.80;1.40;;;20.70;45.30;;;;;;5014619;28;20108;-68
2021/10/18 01:50:29;;;;;;;6.63;1.50;;;20.70;45.40;;;;;;5014166;28;20087;-66
2021/10/18 01:52:55;;;;;;;3.53;1.20;;;20.60;45.30;;;;;;5018386;28;20065;-67
2021/10/18 01:55:22;;;;;;;4.60;1.50;;;20.70;45.20;;;;;;5013544;28;20046;-66
2021/10/18 01:57:49;;;;;;;4.05;1.38;;;20.70;45.30;;;;;;5011503;28;20056;-67
2021/10/18 02:00:16;;;;;;;4.38;1.30;;;20.70;45.80;;;;;;5012313;28;20038;-66
2021/10/18 02:02:46;;;;;;;4.53;1.30;;;20.60;45.10;;;;;;5017186;28;20057;-67
2021/10/18 02:05:12;;;;;;;6.10;1.33;;;20.60;45.00;;;;;;5015494;28;20041;-66
2021/10/18 02:07:38;;;;;;;3.85;1.23;;;20.60;44.90;;;;;;5014123;28;20046;-66
2021/10/18 02:10:04;;;;;;;3.85;1.25;;;20.60;45.00;;;;;;5015666;28;20042;-67
2021/10/18 02:12:30;;;;;;;4.80;1.60;;;20.60;44.90;;;;;;5013252;28;20490;-67
2021/10/18 02:14:56;;;;;;;3.63;1.38;;;20.60;45.00;;;;;;5014536;28;20044;-66
2021/10/18 02:17:22;;;;;;;4.10;1.40;;;20.60;44.90;;;;;;5012323;28;20099;-66
2021/10/18 02:19:50;;;;;;;3.78;1.40;;;20.60;45.00;;;;;;5013310;28;20033;-66
2021/10/18 02:22:18;;;;;;;3.80;1.30;;;20.60;45.00;;;;;;5012534;28;20574;-67
2021/10/18 02:24:43;;;;;;;3.83;1.35;;;20.60;44.90;;;;;;5012432;28;20058;-67
2021/10/18 02:27:11;;;;;;;5.85;1.50;;;20.60;44.80;;;;;;5013427;28;20142;-67
2021/10/18 02:29:39;;;;;;;4.50;1.15;;;20.60;44.80;;;;;;5013199;28;20046;-66
2021/10/18 02:32:08;;;;;;;3.90;1.20;;;20.60;44.90;;;;;;5013571;28;20124;-66
2021/10/18 02:34:35;;;;;;;3.95;1.40;;;20.60;44.90;;;;;;5009931;28;20038;-66
2021/10/18 02:37:01;;;;;;;3.15;1.10;;;20.60;44.80;;;;;;5013277;28;20088;-66
2021/10/18 02:39:29;;;;;;;4.90;1.40;;;20.60;44.80;;;;;;5011856;28;20038;-67
2021/10/18 02:41:54;;;;;;;4.47;1.50;;;20.60;44.90;;;;;;5011463;28;20184;-66
2021/10/18 02:44:20;;;;;;;3.60;1.15;;;20.60;44.70;;;;;;5013678;28;20042;-66
2021/10/18 02:46:45;;;;;;;3.92;1.40;;;20.60;44.90;;;;;;5012038;28;20049;-67
2021/10/18 02:49:11;;;;;;;3.55;1.40;;;20.60;44.80;;;;;;5013315;28;20136;-67
2021/10/18 02:51:37;;;;;;;4.10;1.30;;;20.60;44.90;;;;;;5013782;28;20117;-67
2021/10/18 02:54:05;;;;;;;6.30;1.63;;;20.60;44.70;;;;;;5010815;28;20413;-67
2021/10/18 02:56:30;;;;;;;3.83;1.33;;;20.60;44.80;;;;;;5010612;28;20045;-66
2021/10/18 02:58:56;;;;;;;3.65;1.20;;;20.60;44.70;;;;;;5011396;28;20075;-66
2021/10/18 03:01:22;;;;;;;4.10;1.30;;;20.60;44.80;;;;;;5013708;28;20136;-66
2021/10/18 03:03:47;;;;;;;3.78;1.20;;;20.60;44.70;;;;;;5010949;28;20499;-67
2021/10/18 03:06:13;;;;;;;4.93;1.30;;;20.60;44.80;;;;;;5013609;28;20773;-67
2021/10/18 03:08:39;;;;;;;4.85;1.30;;;20.60;44.70;;;;;;5011285;28;20498;-66
2021/10/18 03:11:05;;;;;;;4.13;1.45;;;20.60;44.80;;;;;;5013440;28;20049;-66
2021/10/18 03:13:30;;;;;;;4.57;1.40;;;20.60;44.60;;;;;;5014830;28;20042;-67
2021/10/18 03:15:56;;;;;;;3.88;1.35;;;20.60;44.60;;;;;;5013360;28;20042;-67
2021/10/18 03:18:22;;;;;;;4.38;1.50;;;20.60;45.40;;;;;;5014850;28;20040;-66
2021/10/18 03:20:48;;;;;;;3.40;1.20;;;20.60;44.80;;;;;;5014799;28;20056;-67
2021/10/18 03:23:13;;;;;;;3.97;1.20;;;20.50;44.40;;;;;;5012822;28;20060;-67
2021/10/18 03:25:39;;;;;;;4.75;1.48;;;20.60;44.60;;;;;;5012292;28;20042;-67
2021/10/18 03:28:07;;;;;;;4.30;1.50;;;20.60;44.80;;;;;;5014356;28;20038;-67
2021/10/18 03:30:33;;;;;;;3.53;1.30;;;20.60;44.60;;;;;;5015117;28;20041;-67
2021/10/18 03:32:59;;;;;;;4.03;1.30;;;20.60;44.50;;;;;;5011929;28;20026;-67
2021/10/18 03:35:25;;;;;;;3.55;1.30;;;20.60;44.80;;;;;;5011586;28;20061;-67
2021/10/18 03:37:51;;;;;;;4.13;1.20;;;20.50;44.50;;;;;;5017136;28;20491;-67
2021/10/18 03:40:21;;;;;;;4.45;1.30;;;20.50;44.50;;;;;;5016522;28;20107;-67
2021/10/18 03:42:47;;;;;;;4.70;1.30;;;20.60;44.50;;;;;;5015177;28;20037;-68
2021/10/18 03:45:13;;;;;;;4.63;1.30;;;20.50;44.20;;;;;;5017364;28;20065;-68
2021/10/18 03:47:39;;;;;;;3.78;1.30;;;20.60;44.40;;;;;;5016250;28;20597;-68
2021/10/18 03:50:06;;;;;;;4.00;1.20;;;20.50;44.20;;;;;;5016279;28;20054;-67
2021/10/18 03:52:32;;;;;;;4.18;1.40;;;20.60;44.90;;;;;;5016143;28;20578;-67
2021/10/18 03:54:57;;;;;;;4.28;1.20;;;20.50;44.20;;;;;;5015849;28;20049;-68
2021/10/18 03:57:23;;;;;;;4.07;1.27;;;20.60;44.40;;;;;;5015373;28;20042;-67
2021/10/18 03:59:48;;;;;;;3.63;1.40;;;20.60;44.30;;;;;;5017298;28;20030;-66
2021/10/18 04:02:15;;;;;;;8.23;1.40;;;20.50;44.10;;;;;;5015531;28;20096;-66
2021/10/18 04:04:41;;;;;;;4.72;1.40;;;20.60;44.50;;;;;;5018969;28;20034;-67
2021/10/18 04:07:06;;;;;;;4.15;1.30;;;20.50;44.10;;;;;;5015889;28;20088;-67
2021/10/18 04:09:33;;;;;;;2.95;1.10;;;20.50;44.20;;;;;;5015424;28;20040;-68
2021/10/18 04:11:59;;;;;;;4.35;1.20;;;20.60;44.20;;;;;;5015755;28;20553;-67
2021/10/18 04:14:25;;;;;;;4.30;1.40;;;20.50;44.30;;;;;;5017615;28;20452;-67
2021/10/18 04:16:51;;;;;;;4.05;1.33;;;20.50;44.00;;;;;;5017645;28;20034;-67
2021/10/18 04:19:17;;;;;;;4.35;1.50;;;20.60;44.30;;;;;;5016833;28;20050;-68
2021/10/18 04:21:44;;;;;;;4.78;1.40;;;20.50;44.10;;;;;;5015547;28;20076;-68
2021/10/18 04:24:10;;;;;;;4.85;1.60;;;20.60;44.20;;;;;;5014629;28;20125;-67
2021/10/18 04:26:35;;;;;;;5.45;1.80;;;20.60;44.40;;;;;;5017731;28;20136;-68
2021/10/18 04:29:01;;;;;;;5.93;1.70;;;20.60;44.30;;;;;;5018321;28;20046;-66
2021/10/18 04:31:29;;;;;;;5.25;1.73;;;20.50;44.10;;;;;;5013946;28;20462;-66
2021/10/18 04:33:59;;;;;;;5.30;1.70;;;20.60;44.20;;;;;;5016699;28;20040;-67
2021/10/18 04:36:26;;;;;;;4.18;1.58;;;20.50;44.10;;;;;;5014612;28;20362;-66
2021/10/18 04:38:52;;;;;;;4.82;1.73;;;20.60;44.20;;;;;;5015401;28;20514;-67
2021/10/18 04:41:18;;;;;;;4.80;1.67;;;20.50;43.90;;;;;;5016232;28;20052;-67
2021/10/18 04:43:44;;;;;;;6.53;1.70;;;20.50;44.00;;;;;;5012445;28;20913;-66
2021/10/18 04:46:09;;;;;;;4.80;1.75;;;20.60;44.10;;;;;;5015843;28;20080;-66
2021/10/18 04:48:35;;;;;;;5.50;1.73;;;20.60;44.20;;;;;;5015211;28;20041;-66
2021/10/18 04:51:00;;;;;;;4.80;1.83;;;20.50;43.90;;;;;;5014817;28;20049;-66
2021/10/18 04:53:26;;;;;;;6.22;1.90;;;20.50;44.00;;;;;;5016684;28;20042;-67
2021/10/18 04:55:52;;;;;;;5.63;2.00;;;20.50;43.80;;;;;;5015842;28;20053;-65
2021/10/18 04:58:18;;;;;;;4.60;1.70;;;20.60;44.00;;;;;;5012052;28;20078;-66
2021/10/18 05:00:45;;;;;;;5.32;1.88;;;20.50;43.70;;;;;;5016339;28;20053;-67
2021/10/18 05:03:11;;;;;;;6.45;2.10;;;20.50;43.80;;;;;;5013958;28;20045;-66
2021/10/18 05:05:38;;;;;;;5.07;1.90;;;20.60;44.10;;;;;;5015832;28;20046;-66
2021/10/18 05:08:07;;;;;;;6.90;2.08;;;20.50;43.70;;;;;;5018495;28;20609;-66
2021/10/18 05:10:33;;;;;;;7.78;2.30;;;20.50;43.80;;;;;;5014689;28;20041;-67
2021/10/18 05:13:00;;;;;;;6.22;2.70;;;20.50;43.70;;;;;;5013739;28;20049;-67
2021/10/18 05:15:26;;;;;;;5.50;2.20;;;20.50;43.70;;;;;;5012933;28;20526;-66
2021/10/18 05:17:52;;;;;;;6.63;2.10;;;20.50;43.80;;;;;;5012720;28;20212;-67
2021/10/18 05:20:18;;;;;;;9.30;2.40;;;20.50;43.90;;;;;;5012812;28;20072;-66
2021/10/18 05:22:43;;;;;;;6.70;2.33;;;20.50;43.70;;;;;;5015605;28;20041;-66
2021/10/18 05:25:10;;;;;;;7.25;2.28;;;20.50;43.80;;;;;;5015590;28;20479;-66
2021/10/18 05:27:39;;;;;;;10.90;2.55;;;20.50;43.70;;;;;;5015503;28;20454;-67
2021/10/18 05:30:06;;;;;;;6.25;2.60;;;20.50;43.90;;;;;;5016585;28;20088;-66
2021/10/18 05:32:32;;;;;;;6.40;2.60;;;20.50;43.70;;;;;;5015150;28;20046;-67
2021/10/18 05:34:57;;;;;;;8.85;2.42;;;20.50;43.70;;;;;;5014441;28;20076;-68
2021/10/18 05:37:23;;;;;;;6.18;2.28;;;20.50;43.80;;;;;;5017120;28;20045;-68
2021/10/18 05:39:49;;;;;;;8.27;2.60;;;20.50;43.70;;;;;;5015646;28;20113;-66
2021/10/18 05:42:14;;;;;;;6.65;2.60;;;20.50;43.70;;;;;;5020535;28;20056;-67
2021/10/18 05:44:40;;;;;;;6.03;2.40;;;20.50;43.60;;;;;;5016804;28;20060;-66
2021/10/18 05:47:06;;;;;;;7.00;2.20;;;20.50;43.80;;;;;;5015299;28;20049;-66
2021/10/18 05:49:31;;;;;;;6.47;2.35;;;20.50;43.70;;;;;;5014716;28;20042;-66
2021/10/18 05:51:57;;;;;;;7.20;2.28;;;20.50;43.70;;;;;;5014589;28;20100;-66
2021/10/18 05:54:23;;;;;;;5.30;2.10;;;20.50;43.70;;;;;;5014814;28;20033;-67
2021/10/18 05:56:50;;;;;;;6.15;2.10;;;20.50;43.60;;;;;;5016832;28;20053;-66
2021/10/18 05:59:16;;;;;;;7.18;2.55;;;20.50;43.50;;;;;;5014588;28;20069;-67
2021/10/18 06:01:43;;;;;;;6.90;2.53;;;20.50;43.70;;;;;;5013150;28;20098;-66
2021/10/18 06:04:09;;;;;;;8.10;2.78;;;20.50;43.60;;;;;;5014325;28;20878;-67
2021/10/18 06:06:36;;;;;;;6.75;2.65;;;20.50;43.60;;;;;;5014152;28;20037;-66
2021/10/18 06:09:03;;;;;;;5.75;2.40;;;20.50;43.70;;;;;;5015782;28;20042;-66
2021/10/18 06:11:30;;;;;;;5.47;2.38;;;20.50;43.60;;;;;;5014816;28;20041;-67
2021/10/18 06:13:56;;;;;;;5.40;2.10;;;20.50;43.70;;;;;;5014193;28;20049;-67
2021/10/18 06:16:21;;;;;;;6.10;2.00;;;20.50;44.00;;;;;;5012823;28;20052;-66
2021/10/18 06:18:47;;;;;;;5.57;2.10;;;20.50;43.70;;;;;;5015990;28;20061;-66
2021/10/18 06:21:13;;;;;;;7.00;2.60;;;20.50;43.70;;;;;;5012776;28;20042;-66
2021/10/18 06:23:38;;;;;;;5.82;2.28;;;20.50;43.60;;;;;;5015102;28;20108;-67
2021/10/18 06:26:04;;;;;;;7.63;2.30;;;20.50;43.70;;;;;;5013766;28;20033;-67
2021/10/18 06:28:30;;;;;;;5.80;2.20;;;20.50;43.50;;;;;;5013211;28;20125;-66
2021/10/18 06:30:55;;;;;;;6.85;2.08;;;20.50;43.50;;;;;;5016076;28;20048;-66
2021/10/18 06:33:22;;;;;;;6.85;2.50;;;20.50;43.70;;;;;;5015471;28;20041;-66
2021/10/18 06:35:48;;;;;;;6.70;2.30;;;20.50;43.50;;;;;;5014656;28;20041;-67
2021/10/18 06:38:16;;;;;;;6.70;2.22;;;20.50;43.50;;;;;;5012514;28;20045;-66
2021/10/18 06:40:43;;;;;;;7.78;2.13;;;20.50;43.50;;;;;;5014220;28;20045;-66
2021/10/18 06:43:09;;;;;;;8.55;1.95;;;20.50;43.40;;;;;;5012689;28;20468;-66
2021/10/18 06:45:35;;;;;;;6.20;2.20;;;20.50;43.50;;;;;;5011588;28;20065;-66
2021/10/18 06:48:01;;;;;;;7.22;2.20;;;20.50;43.40;;;;;;5010794;28;20895;-66
2021/10/18 06:50:29;;;;;;;7.63;2.47;;;20.50;44.20;;;;;;5013048;28;20049;-67
2021/10/18 06:52:55;;;;;;;7.88;2.28;;;20.50;44.00;;;;;;5016669;28;20053;-67
2021/10/18 06:55:22;;;;;;;5.68;2.45;;;20.50;43.90;;;;;;5016558;28;20059;-66
2021/10/18 06:57:48;;;;;;;7.13;2.47;;;20.50;43.70;;;;;;5015058;28;20496;-67
2021/10/18 07:00:14;;;;;;;5.85;2.53;;;20.50;43.50;;;;;;5013770;28;20037;-67
2021/10/18 07:02:39;;;;;;;5.43;2.10;;;20.40;43.50;;;;;;5015793;28;20564;-67
2021/10/18 07:05:05;;;;;;;6.10;2.10;;;20.50;43.70;;;;;;5013983;28;20073;-67
2021/10/18 07:07:31;;;;;;;8.70;2.40;;;20.40;43.10;;;;;;5010802;28;20152;-67
2021/10/18 07:10:01;;;;;;;8.07;2.17;;;20.40;43.00;;;;;;5013542;28;20044;-67
2021/10/18 07:12:31;;;;;;;6.50;2.28;;;20.40;43.20;;;;;;5017679;28;20037;-67
2021/10/18 07:14:58;;;;;;;5.25;2.17;;;20.40;43.00;;;;;;5019172;28;20045;-66
2021/10/18 07:17:26;;;;;;;5.95;2.13;;;20.40;43.20;;;;;;5014561;28;20033;-67
2021/10/18 07:19:52;;;;;;;6.90;2.20;;;20.40;43.20;;;;;;5014838;28;20051;-67
2021/10/18 07:22:19;;;;;;;5.40;2.15;;;20.40;43.00;;;;;;5018873;28;20042;-67
2021/10/18 07:24:45;;;;;;;6.22;2.35;;;20.40;43.20;;;;;;5016405;28;20494;-66
2021/10/18 07:27:11;;;;;;;6.03;2.00;;;20.40;43.30;;;;;;5019508;28;20525;-67
2021/10/18 07:29:38;;;;;;;7.53;2.40;;;20.40;43.40;;;;;;5016479;28;20046;-67
2021/10/18 07:32:04;;;;;;;9.60;2.30;;;20.40;43.10;;;;;;5017932;28;20045;-67
2021/10/18 07:34:30;;;;;;;5.80;2.10;;;20.40;43.20;;;;;;5017706;28;20065;-66
2021/10/18 07:36:56;;;;;;;7.07;2.47;;;20.30;42.90;;;;;;5015456;28;20046;-66
2021/10/18 07:39:24;;;;;;;7.43;2.85;;;20.30;43.00;;;;;;5017648;28;20037;-67
2021/10/18 07:41:51;;;;;;;4.88;2.08;;;20.30;43.00;;;;;;5017517;28;20538;-66
2021/10/18 07:44:19;;;;;;;5.43;1.80;;;20.30;43.00;;;;;;5016499;28;20046;-67
2021/10/18 07:46:45;;;;;;;6.38;2.10;;;20.30;43.20;;;;;;5017784;28;20099;-66
2021/10/18 07:49:12;;;;;;;7.07;2.20;;;20.30;43.20;;;;;;5017137;28;20054;-67
2021/10/18 07:51:38;;;;;;;7.53;2.10;;;20.30;43.10;;;;;;5018463;28;20042;-67
2021/10/18 07:54:05;;;;;;;4.88;1.95;;;20.30;43.10;;;;;;5015100;28;20594;-66
2021/10/18 07:56:32;;;;;;;9.15;1.92;;;20.30;42.90;;;;;;5014312;28;20049;-67
2021/10/18 07:58:58;;;;;;;6.15;1.88;;;20.30;42.90;;;;;;5023027;28;20054;-67
2021/10/18 08:01:24;;;;;;;6.55;2.15;;;20.30;42.70;;;;;;5018558;28;20045;-66
2021/10/18 08:03:50;;;;;;;7.05;1.95;;;20.30;42.90;;;;;;5017295;28;20037;-67
2021/10/18 08:06:15;;;;;;;6.13;1.90;;;20.30;42.80;;;;;;5014484;28;20120;-67
2021/10/18 08:08:50;;;;;;;5.10;1.95;;;20.30;42.70;;;;;;5015245;28;20033;-67
2021/10/18 08:11:16;;;;;;;6.30;2.00;;;20.30;42.80;;;;;;5015587;28;20038;-67
2021/10/18 08:13:42;;;;;;;6.03;2.00;;;20.30;43.10;;;;;;5013656;28;20422;-66
2021/10/18 08:16:08;;;;;;;4.70;1.83;;;20.30;42.90;;;;;;5017247;28;20091;-67
2021/10/18 08:18:34;;;;;;;5.78;2.00;;;20.30;42.80;;;;;;5016045;28;20481;-66
2021/10/18 08:21:00;;;;;;;8.18;2.17;;;20.30;43.40;;;;;;5016323;28;20136;-66
2021/10/18 08:23:26;;;;;;;7.20;2.25;;;20.30;44.00;;;;;;5015411;28;20069;-67
2021/10/18 08:25:52;;;;;;;6.43;2.10;;;20.30;43.90;;;;;;5017434;28;20111;-67
2021/10/18 08:28:18;;;;;;;5.93;1.90;;;20.30;44.00;;;;;;5015289;28;20057;-67
2021/10/18 08:30:44;;;;;;;7.68;1.90;;;20.30;43.90;;;;;;5016028;28;20038;-67
2021/10/18 08:33:09;;;;;;;7.32;2.20;;;20.30;44.10;;;;;;5017926;28;20037;-67
2021/10/18 08:35:35;;;;;;;9.68;2.05;;;20.30;44.30;;;;;;5016169;28;20041;-67
2021/10/18 08:38:36;;;;;;;5.90;2.00;;;20.30;44.20;;;;;;5015932;28;20129;-67
2021/10/18 08:41:17;;;;;;;5.35;1.85;;;20.40;44.20;;;;;;5017566;28;20033;-67
2021/10/18 08:46:27;;;;;;;4.90;2.00;;;20.30;43.90;;;;;;5014342;28;20112;-66
2021/10/18 08:48:56;;;;;;;5.35;1.77;;;20.30;43.90;;;;;;5016117;28;20122;-68
2021/10/18 08:51:22;;;;;;;7.78;2.30;;;20.30;43.80;;;;;;5015622;28;20065;-67
2021/10/18 08:53:49;;;;;;;16.55;2.10;;;20.30;43.30;;;;;;5016582;28;20037;-66
2021/10/18 08:56:15;;;;;;;5.43;1.90;;;20.30;44.10;;;;;;5014949;28;20049;-65
2021/10/18 08:58:41;;;;;;;4.65;1.80;;;20.30;44.10;;;;;;5015841;28;20585;-66
2021/10/18 09:01:06;;;;;;;10.00;2.20;;;20.30;44.20;;;;;;5016933;28;20045;-65
2021/10/18 09:03:33;;;;;;;6.55;2.42;;;20.30;44.10;;;;;;5014367;28;20111;-66
2021/10/18 09:06:12;;;;;;;10.30;2.30;;;20.30;43.70;;;;;;5014534;28;20557;-67
2021/10/18 09:08:51;;;;;;;8.20;2.30;;;20.20;43.90;;;;;;5012772;28;20042;-67
2021/10/18 09:11:26;;;;;;;7.00;2.00;;;20.20;43.80;;;;;;5014548;28;20064;-65
2021/10/18 09:13:52;;;;;;;5.50;1.80;;;20.20;44.00;;;;;;5015257;28;20061;-66
2021/10/18 09:16:38;;;;;;;6.18;1.85;;;20.30;44.40;;;;;;5017613;28;20084;-66
2021/10/18 09:19:12;;;;;;;6.43;1.98;;;20.30;44.40;;;;;;5014245;28;20506;-66
2021/10/18 09:22:06;;;;;;;6.00;2.08;;;20.30;44.50;;;;;;5013141;28;20129;-66
2021/10/18 09:24:34;;;;;;;10.38;2.33;;;20.30;44.50;;;;;;5015661;28;20045;-66
2021/10/18 09:27:17;;;;;;;16.45;2.50;;;20.30;42.70;;;;;;5014820;28;20517;-66
2021/10/18 09:29:47;;;;;;;51.85;4.22;;;20.20;43.10;;;;;;5014178;28;20038;-66
2021/10/18 09:32:29;;;;;;;27.70;3.60;;;20.10;43.00;;;;;;5013217;28;20053;-66
2021/10/18 09:35:08;;;;;;;18.38;2.95;;;20.00;41.00;;;;;;5014776;28;20048;-67
2021/10/18 09:37:42;;;;;;;10.35;2.70;;;19.90;41.10;;;;;;5013803;28;20046;-67
2021/10/18 09:40:09;;;;;;;10.85;2.50;;;19.80;41.30;;;;;;5012969;28;20041;-66
2021/10/18 09:42:35;;;;;;;88.85;4.50;;;19.70;41.50;;;;;;5016434;28;20048;-66
2021/10/18 09:45:25;;;;;;;261.67;11.23;;;19.70;40.80;;;;;;5014101;28;20045;-66
2021/10/18 10:53:11;;;;;;;72.18;6.55;;;20.40;44.40;;;;;;5013564;28;20045;-66
2021/10/18 10:55:37;;;;;;;77.97;6.18;;;20.40;44.40;;;;;;5013815;28;20053;-65
2021/10/18 10:58:32;;;;;;;70.68;6.05;;;20.40;44.40;;;;;;5014890;28;20046;-65
2021/10/18 11:00:58;;;;;;;63.65;5.72;;;20.40;44.30;;;;;;5013341;28;20924;-65
2021/10/18 11:03:30;;;;;;;50.05;5.32;;;20.40;44.40;;;;;;5013582;28;20077;-65
2021/10/18 11:05:55;;;;;;;56.17;5.75;;;20.40;44.40;;;;;;5015869;28;20056;-65
2021/10/18 11:08:42;;;;;;;56.40;5.97;;;20.40;44.50;;;;;;5013801;28;20042;-65
2021/10/18 11:11:22;;;;;;;66.43;6.63;;;20.40;44.50;;;;;;5014555;28;20128;-66
2021/10/18 11:13:56;;;;;;;57.65;5.15;;;20.40;44.70;;;;;;5014063;28;20046;-65
2021/10/18 11:16:28;;;;;;;38.47;4.25;;;20.40;45.00;;;;;;5013720;28;20092;-66
2021/10/18 11:18:56;;;;;;;42.90;5.05;;;20.50;45.20;;;;;;5015828;28;20049;-65
2021/10/18 11:21:29;;;;;;;33.33;3.78;;;20.40;44.90;;;;;;5015249;28;20577;-65
2021/10/18 11:24:08;;;;;;;36.67;4.53;;;20.40;44.80;;;;;;5013149;28;20049;-65
2021/10/18 11:26:37;;;;;;;43.67;4.32;;;20.40;44.80;;;;;;5013170;28;20450;-65
2021/10/18 11:29:12;;;;;;;32.90;3.90;;;20.40;44.80;;;;;;5013322;28;20042;-66
2021/10/18 11:31:42;;;;;;;36.28;4.10;;;20.40;45.30;;;;;;5015623;28;20152;-64
2021/10/18 11:34:13;;;;;;;39.25;4.43;;;20.40;46.10;;;;;;5013704;28;20944;-65
2021/10/18 11:36:42;;;;;;;36.67;4.78;;;20.40;45.90;;;;;;5011879;28;20040;-65
2021/10/18 11:39:09;;;;;;;38.20;4.10;;;20.40;45.70;;;;;;5013434;28;20414;-64
2021/10/18 11:42:04;;;;;;;32.40;4.10;;;20.40;45.60;;;;;;5011748;28;20113;-66
2021/10/18 11:44:41;;;;;;;32.75;3.42;;;20.50;45.70;;;;;;5012129;28;20038;-65
2021/10/18 11:47:31;;;;;;;24.10;3.38;;;20.40;45.40;;;;;;5011108;28;20158;-66
2021/10/18 11:50:17;;;;;;;24.60;3.50;;;20.50;45.60;;;;;;5013191;28;20042;-65
2021/10/18 11:52:43;;;;;;;;;;;20.50;45.30;;;;;;5011931;28;20131;-65
2021/10/18 11:55:10;;;;;;;25.00;3.88;;;20.40;45.20;;;;;;5012896;28;20407;-65
2021/10/18 11:57:42;;;;;;;20.08;3.67;;;20.40;45.10;;;;;;5015182;28;20788;-65
2021/10/18 12:00:20;;;;;;;28.05;3.42;;;20.50;45.30;;;;;;5015505;28;20053;-65
2021/10/18 12:02:46;;;;;;;30.42;3.70;;;20.40;45.00;;;;;;5014670;28;20488;-65
2021/10/18 12:05:13;;;;;;;24.10;3.47;;;20.40;45.70;;;;;;5013580;28;20487;-64
2021/10/18 12:07:46;;;;;;;24.13;3.38;;;20.40;45.00;;;;;;5014047;28;20030;-64
2021/10/18 12:10:26;;;;;;;26.88;3.22;;;20.50;45.20;;;;;;5016198;28;20049;-65
2021/10/18 12:13:08;;;;;;;25.58;3.63;;;20.50;45.20;;;;;;5015729;28;20042;-65
2021/10/18 12:15:39;;;;;;;23.85;3.28;;;20.40;45.00;;;;;;5015567;28;20038;-64
2021/10/18 12:18:06;;;;;;;16.58;2.80;;;20.40;45.00;;;;;;5013210;28;20064;-64
2021/10/18 12:20:32;;;;;;;15.57;2.50;;;20.40;45.00;;;;;;5016116;28;20036;-65
2021/10/18 12:23:04;;;;;;;16.40;2.95;;;20.40;45.10;;;;;;5014274;28;20084;-64
2021/10/18 12:25:35;;;;;;;16.67;3.10;;;20.50;45.20;;;;;;5015873;28;20059;-64
2021/10/18 12:28:23;;;;;;;17.90;2.97;;;20.50;45.20;;;;;;5015606;28;20510;-65
2021/10/18 12:30:49;;;;;;;17.98;2.90;;;20.40;45.00;;;;;;5015061;28;20129;-65
2021/10/18 12:33:15;;;;;;;18.42;3.00;;;20.50;45.20;;;;;;5018546;28;20133;-64
2021/10/18 12:35:41;;;;;;;18.83;2.80;;;20.50;45.20;;;;;;5015957;28;20133;-65
2021/10/18 12:38:12;;;;;;;14.10;2.60;;;20.50;45.20;;;;;;5015835;28;20534;-65
2021/10/18 12:40:39;;;;;;;13.30;2.60;;;20.50;45.20;;;;;;5015409;28;20057;-65
2021/10/18 12:43:05;;;;;;;14.10;2.55;;;20.50;45.20;;;;;;5013716;28;20066;-64
2021/10/18 12:45:37;;;;;;;11.18;2.50;;;20.50;45.20;;;;;;5014191;28;20092;-65
2021/10/18 12:48:03;;;;;;;13.98;2.60;;;20.50;45.20;;;;;;5017226;28;20057;-65
2021/10/18 12:50:36;;;;;;;14.82;3.15;;;20.50;45.20;;;;;;5016665;28;20049;-65
2021/10/18 12:53:10;;;;;;;13.32;2.40;;;20.50;45.30;;;;;;5014532;28;20045;-65
2021/10/18 12:55:39;;;;;;;12.45;2.35;;;20.50;45.20;;;;;;5015121;28;20057;-64
2021/10/18 12:58:18;;;;;;;12.13;2.40;;;20.50;45.20;;;;;;5014665;28;20038;-65
2021/10/18 13:00:43;;;;;;;17.20;3.00;;;20.50;45.20;;;;;;5013842;28;20038;-65
2021/10/18 13:03:09;;;;;;;10.82;2.50;;;20.50;45.20;;;;;;5016226;28;20086;-64
2021/10/18 13:05:38;;;;;;;15.18;2.22;;;20.40;45.00;;;;;;5016585;28;20040;-65
2021/10/18 13:08:04;;;;;;;12.15;2.25;;;20.50;45.30;;;;;;5014546;28;20066;-64
2021/10/18 13:10:32;;;;;;;10.07;2.08;;;20.50;45.30;;;;;;5014745;28;20172;-65
2021/10/18 13:13:03;;;;;;;10.90;2.28;;;20.50;45.30;;;;;;5013853;28;20522;-65
2021/10/18 13:15:29;;;;;;;12.93;2.50;;;20.50;45.30;;;;;;5014207;28;20053;-65
2021/10/18 13:17:56;;;;;;;12.27;2.58;;;20.50;45.30;;;;;;5014200;28;20049;-66
2021/10/18 13:20:23;;;;;;;11.50;2.30;;;20.50;45.30;;;;;;5016537;28;20568;-64
2021/10/18 13:22:55;;;;;;;8.00;1.92;;;20.50;45.30;;;;;;5016158;28;20044;-65
2021/10/18 13:25:23;;;;;;;11.27;1.88;;;20.50;45.30;;;;;;5015553;28;20053;-65
2021/10/18 13:27:49;;;;;;;10.23;2.05;;;20.50;45.30;;;;;;5014335;28;20498;-64
2021/10/18 13:30:15;;;;;;;8.18;2.03;;;20.50;45.30;;;;;;5012458;28;20068;-65
2021/10/18 13:32:42;;;;;;;8.25;2.15;;;20.50;45.30;;;;;;5013764;28;20038;-65
2021/10/18 13:35:09;;;;;;;8.63;2.08;;;20.50;45.30;;;;;;5015560;28;20097;-65
2021/10/18 13:37:36;;;;;;;7.03;1.98;;;20.50;45.30;;;;;;5012924;28;20030;-65
2021/10/18 13:40:03;;;;;;;8.77;2.10;;;20.50;45.40;;;;;;5012907;28;20442;-65
2021/10/18 13:42:30;;;;;;;7.65;2.00;;;20.50;45.40;;;;;;5014376;28;20122;-65
2021/10/18 13:44:56;;;;;;;9.95;2.05;;;20.50;45.40;;;;;;5015185;28;20132;-65
2021/10/18 13:47:22;;;;;;;9.10;1.95;;;20.40;45.20;;;;;;5013420;28;20042;-64
2021/10/18 13:49:48;;;;;;;8.27;1.92;;;20.40;45.20;;;;;;5013207;28;20048;-65
2021/10/18 13:52:14;;;;;;;9.50;2.22;;;20.50;45.40;;;;;;5014016;28;20045;-64
2021/10/18 13:54:39;;;;;;;8.73;2.10;;;20.40;45.20;;;;;;5013608;28;20042;-65
2021/10/18 13:57:06;;;;;;;6.82;1.85;;;20.40;45.30;;;;;;5014475;28;20044;-65